createdAt,value
2018-06-02T00:00:30.622Z,57.23
2018-06-02T00:02:58.209Z,56.30
2018-06-02T00:05:26.613Z,52.33
2018-06-02T00:07:54.198Z,61.57
2018-06-02T00:10:21.916Z,63.37
2018-06-02T00:12:49.506Z,55.40
2018-06-02T00:15:17.205Z,49.97
2018-06-02T00:17:44.795Z,56.37
2018-06-02T00:20:12.381Z,53.03
2018-06-02T00:22:39.965Z,58.93
2018-06-02T00:25:07.650Z,56.93
2018-06-02T00:27:36.061Z,55.23
2018-06-02T00:30:05.239Z,65.53
2018-06-02T00:32:32.872Z,64.10
2018-06-02T00:35:00.456Z,69.40
2018-06-02T00:37:28.076Z,56.23
2018-06-02T00:39:55.662Z,58.13
2018-06-02T00:42:23.296Z,58.30
2018-06-02T00:44:50.876Z,58.47
2018-06-02T00:47:18.491Z,55.60
2018-06-02T00:49:46.835Z,57.83
2018-06-02T00:52:14.429Z,50.10
2018-06-02T00:54:53.896Z,49.23
2018-06-02T00:57:21.484Z,49.80
2018-06-02T00:59:49.121Z,51.80
2018-06-02T01:02:16.715Z,65.07
2018-06-02T01:04:44.393Z,45.17
2018-06-02T01:07:12.688Z,57.30
2018-06-02T01:09:41.253Z,52.37
2018-06-02T01:12:08.917Z,53.73
2018-06-02T01:14:36.506Z,59.28
2018-06-02T01:17:05.065Z,58.63
2018-06-02T01:19:33.595Z,49.20
2018-06-02T01:22:02.032Z,49.07
2018-06-02T01:24:30.515Z,54.67
2018-06-02T01:26:59.022Z,54.40
2018-06-02T01:29:26.609Z,54.50
2018-06-02T01:31:54.453Z,50.80
2018-06-02T01:34:23.029Z,58.10
2018-06-02T01:36:51.497Z,55.80
2018-06-02T01:39:20.042Z,50.70
2018-06-02T01:41:47.985Z,50.10
2018-06-02T01:44:16.338Z,52.33
2018-06-02T01:46:43.931Z,62.43
2018-06-02T01:49:12.364Z,56.67
2018-06-02T01:51:40.737Z,54.93
2018-06-02T01:54:09.177Z,55.50
2018-06-02T01:56:37.709Z,43.80
2018-06-02T01:59:06.172Z,49.90
2018-06-02T02:01:33.852Z,51.53
2018-06-02T02:04:01.513Z,60.43
2018-06-02T02:06:29.159Z,55.77
2018-06-02T02:08:56.746Z,57.87
2018-06-02T02:11:24.324Z,47.47
2018-06-02T02:13:52.715Z,52.03
2018-06-02T02:16:20.774Z,60.10
2018-06-02T02:18:49.285Z,57.17
2018-06-02T02:21:16.873Z,54.10
2018-06-02T02:23:44.485Z,49.50
2018-06-02T02:26:12.075Z,54.03
2018-06-02T02:28:39.717Z,52.93
2018-06-02T02:31:07.305Z,48.93
2018-06-02T02:33:34.909Z,60.23
2018-06-02T02:36:02.502Z,48.20
2018-06-02T02:38:30.952Z,50.03
2018-06-02T02:40:59.469Z,59.03
2018-06-02T02:43:27.862Z,52.93
2018-06-02T02:45:56.521Z,54.20
2018-06-02T02:48:24.110Z,50.10
2018-06-02T02:50:52.449Z,55.10
2018-06-02T02:53:20.033Z,51.57
2018-06-02T02:55:48.521Z,64.67
2018-06-02T02:58:16.813Z,55.00
2018-06-02T03:00:44.393Z,60.80
2018-06-02T03:03:11.978Z,52.40
2018-06-02T03:05:41.311Z,52.57
2018-06-02T03:08:09.860Z,61.33
2018-06-02T03:10:38.225Z,57.00
2018-06-02T03:13:06.592Z,50.93
2018-06-02T03:15:34.177Z,54.27
2018-06-02T03:18:02.691Z,52.77
2018-06-02T03:20:30.337Z,51.20
2018-06-02T03:22:58.876Z,54.27
2018-06-02T03:25:27.260Z,55.30
2018-06-02T03:27:55.758Z,56.73
2018-06-02T03:30:24.130Z,54.13
2018-06-02T03:32:51.771Z,65.33
2018-06-02T03:35:20.285Z,54.20
2018-06-02T03:37:47.897Z,59.60
2018-06-02T03:40:16.450Z,61.17
2018-06-02T03:42:45.025Z,60.83
2018-06-02T03:45:12.622Z,57.63
2018-06-02T03:47:41.125Z,57.80
2018-06-02T03:50:09.494Z,56.33
2018-06-02T03:52:37.981Z,64.80
2018-06-02T03:55:05.564Z,55.43
2018-06-02T03:57:34.068Z,54.40
2018-06-02T04:00:02.465Z,61.13
2018-06-02T04:02:30.830Z,54.90
2018-06-02T04:04:58.460Z,63.83
2018-06-02T04:07:26.735Z,58.30
2018-06-02T04:09:55.013Z,58.93
2018-06-02T04:12:23.374Z,54.47
2018-06-02T04:14:51.785Z,60.50
2018-06-02T04:17:19.374Z,52.53
2018-06-02T04:19:47.883Z,50.80
2018-06-02T04:22:15.501Z,52.40
2018-06-02T04:24:44.037Z,57.03
2018-06-02T04:27:11.661Z,54.47
2018-06-02T04:29:39.253Z,50.70
2018-06-02T04:32:07.712Z,48.13
2018-06-02T04:34:35.296Z,50.40
2018-06-02T04:37:03.088Z,55.07
2018-06-02T04:39:30.672Z,51.87
2018-06-02T04:41:59.166Z,51.17
2018-06-02T04:44:26.761Z,52.20
2018-06-02T04:46:54.492Z,41.97
2018-06-02T04:49:22.081Z,52.70
2018-06-02T04:51:50.638Z,45.93
2018-06-02T04:54:18.226Z,51.57
2018-06-02T04:56:46.658Z,47.13
2018-06-02T04:59:14.289Z,41.20
2018-06-02T05:01:41.877Z,46.63
2018-06-02T05:04:10.416Z,43.17
2018-06-02T05:06:38.003Z,57.60
2018-06-02T05:09:06.412Z,45.93
2018-06-02T05:11:34.784Z,49.17
2018-06-02T05:14:02.381Z,38.93
2018-06-02T05:16:29.965Z,39.17
2018-06-02T05:18:58.340Z,36.30
2018-06-02T05:21:25.931Z,35.80
2018-06-02T05:23:54.324Z,29.30
2018-06-02T05:26:22.087Z,32.83
2018-06-02T05:28:49.664Z,30.63
2018-06-02T05:31:17.247Z,28.90
2018-06-02T05:33:44.931Z,28.40
2018-06-02T05:36:12.565Z,30.00
2018-06-02T05:38:40.146Z,34.23
2018-06-02T05:41:07.729Z,31.13
2018-06-02T05:43:35.373Z,30.77
2018-06-02T05:46:02.981Z,24.27
2018-06-02T05:48:30.579Z,30.33
2018-06-02T05:50:58.212Z,32.40
2018-06-02T05:53:25.801Z,26.37
2018-06-02T05:55:54.201Z,23.43
2018-06-02T05:58:22.694Z,23.83
2018-06-02T06:00:51.063Z,25.27
2018-06-02T06:03:19.349Z,22.13
2018-06-02T06:05:47.717Z,25.97
2018-06-02T06:08:16.085Z,21.63
2018-06-02T06:10:44.581Z,26.17
2018-06-02T06:13:12.245Z,20.00
2018-06-02T06:15:40.938Z,20.67
2018-06-02T06:18:08.525Z,16.77
2018-06-02T06:20:36.159Z,15.23
2018-06-02T06:23:03.780Z,16.10
2018-06-02T06:25:31.366Z,16.30
2018-06-02T06:27:58.991Z,18.93
2018-06-02T06:30:26.569Z,14.33
2018-06-02T06:32:54.173Z,15.70
2018-06-02T06:35:21.812Z,16.33
2018-06-02T06:37:49.665Z,15.13
2018-06-02T06:40:17.251Z,13.33
2018-06-02T06:42:45.583Z,12.97
2018-06-02T06:45:13.181Z,13.53
2018-06-02T06:47:41.677Z,21.30
2018-06-02T06:50:09.268Z,15.00
2018-06-02T06:52:36.897Z,13.40
2018-06-02T06:55:04.597Z,12.53
2018-06-02T06:57:33.037Z,18.30
2018-06-02T07:00:00.740Z,14.03
2018-06-02T07:02:28.318Z,13.90
2018-06-02T07:04:56.827Z,14.20
2018-06-02T07:07:25.198Z,13.63
2018-06-02T07:09:53.716Z,12.40
2018-06-02T07:12:21.357Z,10.97
2018-06-02T07:14:53.836Z,19.40
2018-06-02T07:17:28.252Z,16.53
2018-06-02T07:20:00.427Z,15.20
2018-06-02T07:22:28.054Z,11.50
2018-06-02T07:24:55.795Z,13.73
2018-06-02T07:27:24.109Z,13.53
2018-06-02T07:29:52.513Z,13.20
2018-06-02T07:32:20.813Z,15.90
2018-06-02T07:34:48.441Z,14.30
2018-06-02T07:37:16.024Z,11.63
2018-06-02T07:39:43.698Z,16.13
2018-06-02T07:42:12.065Z,14.57
2018-06-02T07:44:39.736Z,13.17
2018-06-02T07:47:08.233Z,11.87
2018-06-02T07:49:36.429Z,12.50
2018-06-02T07:52:04.722Z,15.07
2018-06-02T07:54:32.345Z,18.67
2018-06-02T07:57:00.865Z,12.97
2018-06-02T07:59:28.449Z,16.50
2018-06-02T08:01:56.077Z,12.53
2018-06-02T08:04:23.670Z,12.27
2018-06-02T08:06:52.174Z,16.53
2018-06-02T08:09:19.764Z,14.33
2018-06-02T08:11:47.384Z,14.53
2018-06-02T08:14:15.015Z,13.67
2018-06-02T08:16:43.306Z,15.10
2018-06-02T08:19:11.737Z,13.77
2018-06-02T08:21:40.241Z,13.93
2018-06-02T08:24:08.692Z,18.13
2018-06-02T08:26:37.046Z,18.53
2018-06-02T08:29:05.516Z,17.87
2018-06-02T08:31:33.097Z,25.67
2018-06-02T08:34:00.719Z,15.87
2018-06-02T08:36:28.312Z,16.50
2018-06-02T08:38:55.972Z,16.57
2018-06-02T08:41:24.452Z,16.23
2018-06-02T08:43:52.069Z,16.30
2018-06-02T08:46:19.652Z,22.10
2018-06-02T08:48:47.242Z,20.43
2018-06-02T08:51:14.859Z,19.23
2018-06-02T08:53:42.530Z,19.70
2018-06-02T08:56:10.109Z,18.13
2018-06-02T08:58:37.692Z,20.27
2018-06-02T09:01:05.380Z,19.93
2018-06-02T09:03:33.021Z,23.00
2018-06-02T09:06:00.608Z,28.60
2018-06-02T09:08:28.202Z,26.13
2018-06-02T09:10:56.746Z,26.97
2018-06-02T09:13:24.328Z,25.77
2018-06-02T09:15:51.954Z,26.60
2018-06-02T09:18:19.538Z,26.27
2018-06-02T09:20:47.126Z,26.73
2018-06-02T09:23:15.433Z,31.03
2018-06-02T09:25:44.022Z,25.57
2018-06-02T09:28:11.624Z,28.67
2018-06-02T09:30:39.209Z,33.63
2018-06-02T09:33:06.789Z,26.20
2018-06-02T09:35:34.369Z,28.90
2018-06-02T09:38:02.005Z,29.57
2018-06-02T09:40:29.592Z,29.20
2018-06-02T09:42:57.210Z,22.40
2018-06-02T09:45:24.876Z,25.27
2018-06-02T09:47:52.469Z,27.83
2018-06-02T09:50:20.052Z,26.37
2018-06-02T09:52:47.631Z,26.37
2018-06-02T09:55:15.213Z,27.47
2018-06-02T09:57:42.812Z,26.10
2018-06-02T10:00:11.325Z,27.53
2018-06-02T10:02:39.017Z,32.10
2018-06-02T10:05:06.689Z,25.80
2018-06-02T10:07:34.424Z,27.37
2018-06-02T10:10:02.165Z,25.47
2018-06-02T10:12:29.749Z,30.33
2018-06-02T10:14:57.329Z,29.60
2018-06-02T10:17:24.997Z,31.07
2018-06-02T10:19:52.577Z,31.33
2018-06-02T10:22:20.222Z,29.37
2018-06-02T10:24:47.813Z,30.53
2018-06-02T10:27:15.395Z,36.87
2018-06-02T10:29:43.852Z,30.83
2018-06-02T10:32:11.443Z,35.17
2018-06-02T10:34:39.034Z,47.43
2018-06-02T10:37:06.664Z,32.30
2018-06-02T10:39:34.306Z,32.37
2018-06-02T10:42:03.105Z,28.93
2018-06-02T10:44:30.735Z,32.10
2018-06-02T10:46:59.193Z,33.33
2018-06-02T10:49:26.833Z,28.87
2018-06-02T10:51:54.432Z,31.10
2018-06-02T10:54:22.017Z,124.73
2018-06-02T10:56:50.343Z,31.63
2018-06-02T10:59:18.210Z,33.20
2018-06-02T11:01:45.873Z,28.53
2018-06-02T11:04:13.484Z,27.43
2018-06-02T11:06:41.068Z,29.50
2018-06-02T11:09:08.697Z,25.63
2018-06-02T11:11:36.264Z,28.50
2018-06-02T11:14:03.886Z,25.63
2018-06-02T11:16:31.470Z,25.33
2018-06-02T11:18:59.140Z,29.50
2018-06-02T11:21:26.724Z,26.10
2018-06-02T11:23:54.316Z,25.37
2018-06-02T11:26:21.958Z,28.10
2018-06-02T11:28:49.544Z,24.10
2018-06-02T11:31:17.131Z,22.80
2018-06-02T11:33:44.813Z,21.93
2018-06-02T11:36:12.421Z,22.63
2018-06-02T11:38:40.013Z,17.87
2018-06-02T11:41:07.589Z,32.90
2018-06-02T11:43:35.194Z,18.43
2018-06-02T11:46:02.783Z,22.80
2018-06-02T11:48:30.417Z,19.00
2018-06-02T11:50:58.100Z,25.77
2018-06-02T11:53:25.680Z,24.20
2018-06-02T11:55:53.277Z,28.60
2018-06-02T11:58:20.858Z,26.07
2018-06-02T12:00:48.442Z,27.03
2018-06-02T12:03:16.016Z,32.57
2018-06-02T12:05:43.892Z,39.40
2018-06-02T12:08:12.402Z,35.03
2018-06-02T12:10:40.899Z,31.20
2018-06-02T12:13:08.554Z,32.37
2018-06-02T12:15:36.136Z,31.20
2018-06-02T12:18:04.092Z,29.53
2018-06-02T12:20:31.768Z,28.50
2018-06-02T12:22:59.328Z,27.97
2018-06-02T12:25:26.914Z,25.30
2018-06-02T12:27:54.553Z,27.00
2018-06-02T12:30:22.141Z,25.87
2018-06-02T12:32:49.730Z,22.60
2018-06-02T12:35:17.660Z,24.83
2018-06-02T12:37:45.289Z,25.23
2018-06-02T12:40:13.001Z,24.10
2018-06-02T12:42:40.569Z,28.80
2018-06-02T12:45:08.153Z,24.47
2018-06-02T12:47:35.745Z,25.50
2018-06-02T12:50:03.394Z,26.20
2018-06-02T12:52:30.981Z,25.03
2018-06-02T12:54:58.567Z,26.20
2018-06-02T12:57:26.177Z,27.17
2018-06-02T12:59:53.773Z,33.07
2018-06-02T13:02:21.353Z,27.93
2018-06-02T13:04:48.947Z,27.50
2018-06-02T13:07:16.536Z,29.67
2018-06-02T13:09:44.119Z,31.10
2018-06-02T13:12:12.462Z,33.43
2018-06-02T13:14:40.176Z,31.17
2018-06-02T13:17:07.825Z,33.53
2018-06-02T13:19:35.416Z,34.80
2018-06-02T13:22:02.998Z,33.23
2018-06-02T13:24:30.580Z,35.80
2018-06-02T13:26:58.253Z,37.93
2018-06-02T13:29:25.878Z,41.80
2018-06-02T13:31:53.468Z,39.10
2018-06-02T13:34:21.061Z,43.43
2018-06-02T13:36:48.649Z,46.27
2018-06-02T13:39:16.283Z,42.27
2018-06-02T13:41:43.945Z,59.53
2018-06-02T13:44:11.537Z,46.23
2018-06-02T13:46:39.121Z,43.43
2018-06-02T13:49:06.794Z,49.60
2018-06-02T13:51:34.382Z,45.27
2018-06-02T13:54:01.967Z,45.07
2018-06-02T13:56:30.385Z,52.30
2018-06-02T13:58:58.062Z,44.80
2018-06-02T14:01:25.677Z,45.33
2018-06-02T14:03:54.069Z,39.23
2018-06-02T14:06:21.669Z,43.13
2018-06-02T14:08:49.257Z,41.20
2018-06-02T14:11:17.733Z,38.20
2018-06-02T14:13:46.131Z,44.13
2018-06-02T14:16:13.756Z,50.37
2018-06-02T14:18:41.418Z,44.10
2018-06-02T14:21:09.733Z,46.37
2018-06-02T14:23:37.312Z,39.80
2018-06-02T14:26:04.903Z,41.57
2018-06-02T14:28:32.485Z,44.70
2018-06-02T14:31:00.865Z,48.47
2018-06-02T14:33:29.252Z,43.43
2018-06-02T14:35:57.615Z,43.17
2018-06-02T14:38:26.134Z,41.67
2018-06-02T14:40:54.577Z,41.10
2018-06-02T14:43:22.241Z,41.40
2018-06-02T14:45:50.009Z,39.67
2018-06-02T14:48:17.590Z,41.87
2018-06-02T14:50:45.231Z,44.93
2018-06-02T14:53:12.817Z,45.30
2018-06-02T14:55:41.020Z,39.30
2018-06-02T14:58:08.601Z,46.23
2018-06-02T15:00:36.185Z,41.20
2018-06-02T15:03:03.779Z,52.20
2018-06-02T15:05:31.400Z,40.97
2018-06-02T15:07:58.985Z,43.13
2018-06-02T15:10:26.637Z,41.93
2018-06-02T15:12:54.220Z,44.53
2018-06-02T15:15:21.845Z,40.13
2018-06-02T15:17:49.590Z,40.07
2018-06-02T15:20:17.185Z,36.33
2018-06-02T15:22:45.769Z,40.20
2018-06-02T15:25:14.361Z,35.70
2018-06-02T15:27:42.893Z,32.43
2018-06-02T15:30:10.474Z,36.43
2018-06-02T15:32:39.126Z,38.67
2018-06-02T15:35:12.483Z,32.80
2018-06-02T15:37:40.361Z,31.43
2018-06-02T15:40:09.201Z,32.33
2018-06-02T15:42:37.074Z,34.60
2018-06-02T15:45:05.834Z,27.13
2018-06-02T15:47:33.461Z,29.67
2018-06-02T15:50:01.045Z,26.00
2018-06-02T15:52:28.629Z,30.80
2018-06-02T15:54:57.988Z,27.90
2018-06-02T15:57:25.576Z,35.53
2018-06-02T15:59:53.210Z,23.50
2018-06-02T16:02:20.873Z,28.57
2018-06-02T16:04:49.615Z,26.50
2018-06-02T16:07:17.279Z,22.97
2018-06-02T16:09:44.893Z,20.90
2018-06-02T16:12:12.534Z,21.67
2018-06-02T16:14:40.158Z,23.70
2018-06-02T16:17:08.712Z,20.40
2018-06-02T16:19:36.304Z,19.20
2018-06-02T16:22:03.893Z,20.00
2018-06-02T16:24:31.473Z,20.47
2018-06-02T16:26:59.098Z,18.73
2018-06-02T16:29:27.471Z,19.50
2018-06-02T16:31:55.097Z,16.70
2018-06-02T16:34:23.501Z,18.37
2018-06-02T16:36:51.085Z,15.97
2018-06-02T16:39:18.669Z,20.70
2018-06-02T16:41:46.289Z,20.20
2018-06-02T16:44:13.869Z,16.50
2018-06-02T16:46:41.506Z,18.97
2018-06-02T16:49:09.090Z,18.30
2018-06-02T16:51:37.515Z,20.17
2018-06-02T16:54:05.789Z,17.80
2018-06-02T16:56:33.377Z,16.30
2018-06-02T16:59:00.966Z,19.17
2018-06-02T17:01:28.554Z,17.40
2018-06-02T17:03:56.138Z,19.33
2018-06-02T17:06:23.768Z,15.67
2018-06-02T17:08:51.463Z,20.87
2018-06-02T17:11:19.121Z,21.07
2018-06-02T17:13:46.718Z,18.57
2018-06-02T17:16:14.402Z,19.93
2018-06-02T17:18:42.015Z,23.23
2018-06-02T17:21:09.593Z,23.80
2018-06-02T17:23:37.189Z,19.83
2018-06-02T17:26:04.784Z,29.23
2018-06-02T17:28:32.373Z,21.50
2018-06-02T17:30:59.956Z,24.30
2018-06-02T17:33:27.581Z,23.60
2018-06-02T17:35:55.245Z,24.90
2018-06-02T17:38:23.726Z,28.30
2018-06-02T17:40:52.309Z,25.97
2018-06-02T17:43:20.890Z,28.57
2018-06-02T17:45:49.329Z,31.20
2018-06-02T17:48:16.959Z,26.60
2018-06-02T17:50:45.339Z,30.20
2018-06-02T17:53:12.987Z,27.93
2018-06-02T17:55:40.682Z,27.00
2018-06-02T17:58:08.314Z,26.27
2018-06-02T18:00:35.974Z,24.23
2018-06-02T18:03:03.558Z,26.60
2018-06-02T18:05:31.195Z,28.30
2018-06-02T18:07:58.853Z,27.43
2018-06-02T18:10:26.435Z,26.00
2018-06-02T18:12:54.029Z,27.57
2018-06-02T18:15:21.649Z,25.40
2018-06-02T18:17:49.234Z,30.73
2018-06-02T18:20:16.815Z,29.90
2018-06-02T18:22:45.322Z,35.47
2018-06-02T18:25:13.748Z,25.63
2018-06-02T18:27:42.604Z,29.93
2018-06-02T18:30:10.188Z,29.93
2018-06-02T18:32:37.773Z,33.87
2018-06-02T18:35:05.406Z,28.50
2018-06-02T18:37:32.997Z,31.50
2018-06-02T18:40:00.631Z,28.97
2018-06-02T18:42:29.043Z,30.90
2018-06-02T18:44:56.634Z,30.07
2018-06-02T18:47:24.214Z,30.40
2018-06-02T18:49:51.898Z,30.00
2018-06-02T18:52:19.493Z,33.47
2018-06-02T18:54:48.495Z,30.13
2018-06-02T18:57:16.391Z,28.50
2018-06-02T18:59:44.181Z,31.03
2018-06-02T19:02:12.423Z,29.27
2018-06-02T19:04:40.197Z,31.80
2018-06-02T19:07:07.782Z,38.60
2018-06-02T19:09:35.485Z,32.37
2018-06-02T19:12:03.151Z,34.50
2018-06-02T19:14:30.741Z,33.20
2018-06-02T19:16:58.330Z,33.10
2018-06-02T19:19:25.952Z,32.93
2018-06-02T19:21:54.282Z,33.33
2018-06-02T19:24:21.943Z,35.00
2018-06-02T19:26:50.422Z,35.20
2018-06-02T19:29:18.072Z,37.53
2018-06-02T19:31:45.751Z,31.83
2018-06-02T19:34:13.404Z,31.30
2018-06-02T19:36:41.078Z,30.43
2018-06-02T19:39:08.742Z,32.87
2018-06-02T19:41:36.399Z,37.17
2018-06-02T19:44:04.012Z,35.73
2018-06-02T19:46:32.527Z,39.47
2018-06-02T19:49:00.114Z,35.27
2018-06-02T19:51:27.697Z,36.53
2018-06-02T19:53:55.301Z,37.17
2018-06-02T19:56:23.152Z,35.10
2018-06-02T19:58:51.689Z,30.73
2018-06-02T20:01:19.537Z,34.07
2018-06-02T20:03:47.998Z,35.10
2018-06-02T20:06:16.780Z,35.50
2018-06-02T20:08:44.722Z,32.97
2018-06-02T20:11:12.515Z,32.70
2018-06-02T20:13:40.107Z,31.60
2018-06-02T20:16:07.731Z,35.70
2018-06-02T20:18:35.310Z,37.23
2018-06-02T20:21:02.942Z,39.93
2018-06-02T20:23:30.533Z,34.80
2018-06-02T20:25:58.149Z,41.70
2018-06-02T20:28:25.965Z,34.83
2018-06-02T20:30:53.550Z,37.17
2018-06-02T20:33:21.695Z,40.57
2018-06-02T20:35:50.015Z,41.97
2018-06-02T20:38:18.386Z,40.30
2018-06-02T20:40:47.293Z,34.30
2018-06-02T20:43:14.889Z,35.80
2018-06-02T20:45:44.457Z,41.33
2018-06-02T20:48:12.105Z,36.17
2018-06-02T20:50:39.770Z,35.53
2018-06-02T20:53:07.464Z,37.17
2018-06-02T20:55:35.832Z,36.77
2018-06-02T20:58:04.646Z,35.23
2018-06-02T21:00:32.432Z,33.83
2018-06-02T21:03:00.092Z,37.00
2018-06-02T21:05:28.278Z,35.17
2018-06-02T21:07:57.797Z,36.00
2018-06-02T21:10:25.390Z,35.40
2018-06-02T21:12:53.938Z,37.77
2018-06-02T21:15:21.627Z,36.97
2018-06-02T21:17:49.289Z,35.73
2018-06-02T21:20:18.236Z,36.70
2018-06-02T21:22:47.930Z,33.10
2018-06-02T21:25:15.557Z,31.40
2018-06-02T21:27:43.734Z,34.97
2018-06-02T21:30:12.317Z,36.77
2018-06-02T21:32:42.122Z,36.17
2018-06-02T21:35:13.212Z,33.40
2018-06-02T21:37:42.122Z,31.83
2018-06-02T21:40:11.023Z,33.53
2018-06-02T21:42:39.893Z,32.77
2018-06-02T21:45:10.995Z,35.27
2018-06-02T21:47:38.621Z,33.80
2018-06-02T21:50:07.019Z,31.50
2018-06-02T21:52:35.560Z,34.20
2018-06-02T21:55:03.947Z,34.07
2018-06-02T21:57:31.569Z,37.50
2018-06-02T21:59:59.146Z,32.97
2018-06-02T22:02:26.766Z,37.03
2018-06-02T22:04:54.361Z,37.23
2018-06-02T22:07:22.004Z,33.10
2018-06-02T22:09:49.665Z,34.03
2018-06-02T22:12:18.051Z,31.20
2018-06-02T22:14:46.680Z,36.03
2018-06-02T22:17:14.257Z,36.00
2018-06-02T22:19:42.014Z,32.43
2018-06-02T22:22:09.593Z,30.47
2018-06-02T22:24:37.255Z,35.57
2018-06-02T22:27:06.480Z,30.37
2018-06-02T22:29:34.847Z,31.97
2018-06-02T22:32:03.615Z,32.03
2018-06-02T22:34:31.313Z,37.07
2018-06-02T22:37:01.186Z,37.47
2018-06-02T22:39:29.712Z,41.13
2018-06-02T22:41:57.293Z,33.83
2018-06-02T22:44:24.884Z,32.00
2018-06-02T22:46:52.462Z,38.07
2018-06-02T22:49:20.076Z,34.80
2018-06-02T22:51:57.442Z,37.43
2018-06-02T22:54:25.083Z,37.87
2018-06-02T22:56:53.573Z,37.17
2018-06-02T22:59:21.949Z,36.90
2018-06-02T23:01:49.534Z,33.27
2018-06-02T23:04:17.233Z,36.20
2018-06-02T23:06:44.815Z,40.20
2018-06-02T23:09:12.393Z,43.60
2018-06-02T23:11:41.106Z,35.07
2018-06-02T23:14:10.432Z,29.47
2018-06-02T23:16:38.025Z,34.17
2018-06-02T23:19:07.096Z,33.97
2018-06-02T23:21:35.885Z,33.17
2018-06-02T23:24:04.915Z,36.90
2018-06-02T23:26:33.594Z,35.17
2018-06-02T23:29:02.787Z,40.90
2018-06-02T23:31:31.620Z,40.50
2018-06-02T23:33:59.356Z,38.07
2018-06-02T23:36:28.248Z,40.27
2018-06-02T23:38:56.430Z,36.80
2018-06-02T23:41:24.091Z,49.63
2018-06-02T23:43:51.681Z,43.00
2018-06-02T23:46:20.157Z,47.00
2018-06-02T23:48:48.530Z,46.97
2018-06-02T23:51:17.088Z,50.33
2018-06-02T23:53:45.376Z,44.37
2018-06-02T23:56:13.039Z,42.23
2018-06-02T23:58:41.555Z,45.13
